sensor_id;sensor_type;location;lat;lon;timestamp;temperature;humidity
22006;DHT22;11167;46.988;15.470;2022-10-14T00:00:33;15.70;79.70
22006;DHT22;11167;46.988;15.470;2022-10-14T00:02:34;15.60;79.60
22006;DHT22;11167;46.988;15.470;2022-10-14T00:04:35;15.60;79.60
22006;DHT22;11167;46.988;15.470;2022-10-14T00:06:36;15.60;80.40
22006;DHT22;11167;46.988;15.470;2022-10-14T00:08:38;15.60;79.60
22006;DHT22;11167;46.988;15.470;2022-10-14T00:10:39;15.60;79.70
22006;DHT22;11167;46.988;15.470;2022-10-14T00:12:40;15.50;79.60
22006;DHT22;11167;46.988;15.470;2022-10-14T00:14:41;15.50;79.60
22006;DHT22;11167;46.988;15.470;2022-10-14T00:16:44;15.50;79.60
22006;DHT22;11167;46.988;15.470;2022-10-14T00:18:47;15.50;79.60
22006;DHT22;11167;46.988;15.470;2022-10-14T00:20:55;15.40;79.60
22006;DHT22;11167;46.988;15.470;2022-10-14T00:22:56;15.50;79.70
22006;DHT22;11167;46.988;15.470;2022-10-14T00:24:58;15.40;79.60
22006;DHT22;11167;46.988;15.470;2022-10-14T00:26:59;15.40;79.70
22006;DHT22;11167;46.988;15.470;2022-10-14T00:29:01;15.40;79.80
22006;DHT22;11167;46.988;15.470;2022-10-14T00:31:02;15.30;79.70
22006;DHT22;11167;46.988;15.470;2022-10-14T00:33:04;15.40;79.70
22006;DHT22;11167;46.988;15.470;2022-10-14T00:35:06;15.30;79.70
22006;DHT22;11167;46.988;15.470;2022-10-14T00:37:07;15.30;79.70
22006;DHT22;11167;46.988;15.470;2022-10-14T00:39:09;15.30;79.70
22006;DHT22;11167;46.988;15.470;2022-10-14T00:41:17;15.30;79.70
22006;DHT22;11167;46.988;15.470;2022-10-14T00:43:19;15.30;79.80
22006;DHT22;11167;46.988;15.470;2022-10-14T00:45:23;15.20;79.70
22006;DHT22;11167;46.988;15.470;2022-10-14T00:47:24;15.20;79.70
22006;DHT22;11167;46.988;15.470;2022-10-14T00:49:28;15.20;79.80
22006;DHT22;11167;46.988;15.470;2022-10-14T00:51:31;15.10;79.80
22006;DHT22;11167;46.988;15.470;2022-10-14T00:53:33;15.20;79.80
22006;DHT22;11167;46.988;15.470;2022-10-14T00:55:34;15.10;79.80
22006;DHT22;11167;46.988;15.470;2022-10-14T00:57:37;15.10;79.80
22006;DHT22;11167;46.988;15.470;2022-10-14T00:59:39;15.10;79.80
22006;DHT22;11167;46.988;15.470;2022-10-14T01:01:40;15.10;79.90
22006;DHT22;11167;46.988;15.470;2022-10-14T01:03:41;15.10;79.90
22006;DHT22;11167;46.988;15.470;2022-10-14T01:05:49;15.00;79.80
22006;DHT22;11167;46.988;15.470;2022-10-14T01:07:53;15.00;79.80
22006;DHT22;11167;46.988;15.470;2022-10-14T01:10:06;15.00;79.80
22006;DHT22;11167;46.988;15.470;2022-10-14T01:16:59;14.90;79.90
22006;DHT22;11167;46.988;15.470;2022-10-14T01:21:42;14.90;79.90
22006;DHT22;11167;46.988;15.470;2022-10-14T01:31:16;14.80;80.00
22006;DHT22;11167;46.988;15.470;2022-10-14T01:33:29;14.70;79.90
22006;DHT22;11167;46.988;15.470;2022-10-14T01:35:50;14.70;80.00
22006;DHT22;11167;46.988;15.470;2022-10-14T01:38:06;14.70;80.00
22006;DHT22;11167;46.988;15.470;2022-10-14T01:40:10;14.70;80.00
22006;DHT22;11167;46.988;15.470;2022-10-14T01:42:17;14.70;80.10
22006;DHT22;11167;46.988;15.470;2022-10-14T01:44:20;14.60;79.50
22006;DHT22;11167;46.988;15.470;2022-10-14T01:46:24;14.60;79.90
22006;DHT22;11167;46.988;15.470;2022-10-14T01:48:30;14.60;80.00
22006;DHT22;11167;46.988;15.470;2022-10-14T01:50:32;14.60;80.00
22006;DHT22;11167;46.988;15.470;2022-10-14T01:52:43;14.60;80.10
22006;DHT22;11167;46.988;15.470;2022-10-14T01:54:43;14.60;80.00
22006;DHT22;11167;46.988;15.470;2022-10-14T01:56:47;14.60;80.00
22006;DHT22;11167;46.988;15.470;2022-10-14T01:58:49;14.50;80.00
22006;DHT22;11167;46.988;15.470;2022-10-14T02:00:52;14.50;80.00
22006;DHT22;11167;46.988;15.470;2022-10-14T02:02:53;14.50;80.00
22006;DHT22;11167;46.988;15.470;2022-10-14T02:04:56;14.50;80.00
22006;DHT22;11167;46.988;15.470;2022-10-14T02:09:32;14.50;80.10
22006;DHT22;11167;46.988;15.470;2022-10-14T02:11:37;14.50;80.00
22006;DHT22;11167;46.988;15.470;2022-10-14T02:13:48;14.50;80.10
22006;DHT22;11167;46.988;15.470;2022-10-14T02:18:38;14.40;80.00
22006;DHT22;11167;46.988;15.470;2022-10-14T02:23:03;14.40;80.10
22006;DHT22;11167;46.988;15.470;2022-10-14T02:25:07;14.40;80.10
22006;DHT22;11167;46.988;15.470;2022-10-14T02:27:12;14.40;80.20
22006;DHT22;11167;46.988;15.470;2022-10-14T02:29:14;14.30;80.20
22006;DHT22;11167;46.988;15.470;2022-10-14T02:31:16;14.30;80.20
22006;DHT22;11167;46.988;15.470;2022-10-14T02:33:20;14.30;80.20
22006;DHT22;11167;46.988;15.470;2022-10-14T02:35:23;14.30;80.20
22006;DHT22;11167;46.988;15.470;2022-10-14T02:37:25;14.30;80.20
22006;DHT22;11167;46.988;15.470;2022-10-14T02:39:36;14.30;80.20
22006;DHT22;11167;46.988;15.470;2022-10-14T02:41:38;14.30;80.30
22006;DHT22;11167;46.988;15.470;2022-10-14T02:43:40;14.30;81.20
22006;DHT22;11167;46.988;15.470;2022-10-14T02:45:42;14.30;80.30
22006;DHT22;11167;46.988;15.470;2022-10-14T02:47:43;14.30;80.30
22006;DHT22;11167;46.988;15.470;2022-10-14T02:49:45;14.30;80.30
22006;DHT22;11167;46.988;15.470;2022-10-14T02:51:47;14.20;80.20
22006;DHT22;11167;46.988;15.470;2022-10-14T02:53:48;14.30;80.30
22006;DHT22;11167;46.988;15.470;2022-10-14T02:55:49;14.20;80.30
22006;DHT22;11167;46.988;15.470;2022-10-14T02:57:50;14.20;80.30
22006;DHT22;11167;46.988;15.470;2022-10-14T02:59:51;14.20;80.40
22006;DHT22;11167;46.988;15.470;2022-10-14T03:01:52;14.20;80.40
22006;DHT22;11167;46.988;15.470;2022-10-14T03:03:54;14.20;80.40
22006;DHT22;11167;46.988;15.470;2022-10-14T03:05:55;14.20;80.40
22006;DHT22;11167;46.988;15.470;2022-10-14T03:07:56;14.20;80.40
22006;DHT22;11167;46.988;15.470;2022-10-14T03:09:57;14.20;80.50
22006;DHT22;11167;46.988;15.470;2022-10-14T03:11:58;14.20;81.30
22006;DHT22;11167;46.988;15.470;2022-10-14T03:13:59;14.20;80.50
22006;DHT22;11167;46.988;15.470;2022-10-14T03:16:01;14.10;80.40
22006;DHT22;11167;46.988;15.470;2022-10-14T03:18:02;14.10;81.20
22006;DHT22;11167;46.988;15.470;2022-10-14T03:20:04;14.10;80.40
22006;DHT22;11167;46.988;15.470;2022-10-14T03:22:05;14.10;80.50
22006;DHT22;11167;46.988;15.470;2022-10-14T03:24:08;14.10;80.40
22006;DHT22;11167;46.988;15.470;2022-10-14T03:26:09;14.10;80.50
22006;DHT22;11167;46.988;15.470;2022-10-14T03:28:11;14.10;80.50
22006;DHT22;11167;46.988;15.470;2022-10-14T03:30:12;14.10;80.50
22006;DHT22;11167;46.988;15.470;2022-10-14T03:32:13;14.00;80.50
22006;DHT22;11167;46.988;15.470;2022-10-14T03:34:15;14.10;80.50
22006;DHT22;11167;46.988;15.470;2022-10-14T03:36:16;14.10;80.60
22006;DHT22;11167;46.988;15.470;2022-10-14T03:38:17;14.10;80.70
22006;DHT22;11167;46.988;15.470;2022-10-14T03:40:18;14.10;80.60
22006;DHT22;11167;46.988;15.470;2022-10-14T03:42:19;14.00;80.60
22006;DHT22;11167;46.988;15.470;2022-10-14T03:44:20;14.00;80.60
22006;DHT22;11167;46.988;15.470;2022-10-14T03:46:21;14.00;80.80
22006;DHT22;11167;46.988;15.470;2022-10-14T03:48:23;14.00;80.60
22006;DHT22;11167;46.988;15.470;2022-10-14T03:50:25;14.00;80.70
22006;DHT22;11167;46.988;15.470;2022-10-14T03:52:26;14.00;80.60
22006;DHT22;11167;46.988;15.470;2022-10-14T03:54:27;14.00;80.70
22006;DHT22;11167;46.988;15.470;2022-10-14T03:56:29;14.00;80.70
22006;DHT22;11167;46.988;15.470;2022-10-14T03:58:30;14.00;80.80
22006;DHT22;11167;46.988;15.470;2022-10-14T04:00:31;14.00;80.80
22006;DHT22;11167;46.988;15.470;2022-10-14T04:02:32;14.00;80.80
22006;DHT22;11167;46.988;15.470;2022-10-14T04:04:33;14.00;80.80
22006;DHT22;11167;46.988;15.470;2022-10-14T04:06:35;14.00;80.90
22006;DHT22;11167;46.988;15.470;2022-10-14T04:08:36;14.00;80.90
22006;DHT22;11167;46.988;15.470;2022-10-14T04:10:37;14.00;81.00
22006;DHT22;11167;46.988;15.470;2022-10-14T04:12:38;14.00;80.90
22006;DHT22;11167;46.988;15.470;2022-10-14T04:14:40;14.00;80.80
22006;DHT22;11167;46.988;15.470;2022-10-14T04:16:41;14.00;80.90
22006;DHT22;11167;46.988;15.470;2022-10-14T04:18:42;14.00;80.90
22006;DHT22;11167;46.988;15.470;2022-10-14T04:20:43;13.90;80.80
22006;DHT22;11167;46.988;15.470;2022-10-14T04:22:44;13.90;80.90
22006;DHT22;11167;46.988;15.470;2022-10-14T04:24:45;13.90;81.80
22006;DHT22;11167;46.988;15.470;2022-10-14T04:26:49;13.90;80.90
22006;DHT22;11167;46.988;15.470;2022-10-14T04:28:51;13.90;81.80
22006;DHT22;11167;46.988;15.470;2022-10-14T04:30:52;13.90;81.00
22006;DHT22;11167;46.988;15.470;2022-10-14T04:32:53;13.90;81.10
22006;DHT22;11167;46.988;15.470;2022-10-14T04:34:54;13.90;81.00
22006;DHT22;11167;46.988;15.470;2022-10-14T04:36:56;13.90;81.00
22006;DHT22;11167;46.988;15.470;2022-10-14T04:38:57;13.90;80.40
22006;DHT22;11167;46.988;15.470;2022-10-14T04:41:05;13.80;81.60
22006;DHT22;11167;46.988;15.470;2022-10-14T04:43:06;13.80;81.10
22006;DHT22;11167;46.988;15.470;2022-10-14T04:45:08;13.80;81.20
22006;DHT22;11167;46.988;15.470;2022-10-14T04:47:09;13.80;81.10
22006;DHT22;11167;46.988;15.470;2022-10-14T04:49:10;13.80;81.10
22006;DHT22;11167;46.988;15.470;2022-10-14T04:51:12;13.80;81.20
22006;DHT22;11167;46.988;15.470;2022-10-14T04:53:13;13.80;81.10
22006;DHT22;11167;46.988;15.470;2022-10-14T04:55:15;13.80;81.10
22006;DHT22;11167;46.988;15.470;2022-10-14T04:57:19;13.80;80.60
22006;DHT22;11167;46.988;15.470;2022-10-14T04:59:21;13.80;81.30
22006;DHT22;11167;46.988;15.470;2022-10-14T05:01:22;13.80;81.20
22006;DHT22;11167;46.988;15.470;2022-10-14T05:03:24;13.80;81.30
22006;DHT22;11167;46.988;15.470;2022-10-14T05:05:25;13.80;81.40
22006;DHT22;11167;46.988;15.470;2022-10-14T05:07:26;13.80;81.30
22006;DHT22;11167;46.988;15.470;2022-10-14T05:09:27;13.80;81.40
22006;DHT22;11167;46.988;15.470;2022-10-14T05:11:29;13.80;81.30
22006;DHT22;11167;46.988;15.470;2022-10-14T05:13:30;13.80;81.30
22006;DHT22;11167;46.988;15.470;2022-10-14T05:15:31;13.80;81.30
22006;DHT22;11167;46.988;15.470;2022-10-14T05:17:33;13.70;81.30
22006;DHT22;11167;46.988;15.470;2022-10-14T05:19:36;13.70;81.30
22006;DHT22;11167;46.988;15.470;2022-10-14T05:21:37;13.70;81.30
22006;DHT22;11167;46.988;15.470;2022-10-14T05:23:38;13.70;81.30
22006;DHT22;11167;46.988;15.470;2022-10-14T05:25:40;13.70;81.30
22006;DHT22;11167;46.988;15.470;2022-10-14T05:27:42;13.70;81.30
22006;DHT22;11167;46.988;15.470;2022-10-14T05:29:43;13.70;81.40
22006;DHT22;11167;46.988;15.470;2022-10-14T05:31:44;13.70;81.50
22006;DHT22;11167;46.988;15.470;2022-10-14T05:33:45;13.70;81.50
22006;DHT22;11167;46.988;15.470;2022-10-14T05:35:46;13.70;81.50
22006;DHT22;11167;46.988;15.470;2022-10-14T05:37:53;13.70;81.50
22006;DHT22;11167;46.988;15.470;2022-10-14T05:39:55;13.70;82.20
22006;DHT22;11167;46.988;15.470;2022-10-14T05:41:56;13.70;81.50
22006;DHT22;11167;46.988;15.470;2022-10-14T05:43:57;13.70;81.60
22006;DHT22;11167;46.988;15.470;2022-10-14T05:45:59;13.70;81.60
22006;DHT22;11167;46.988;15.470;2022-10-14T05:48:00;13.60;81.50
22006;DHT22;11167;46.988;15.470;2022-10-14T05:50:01;13.60;81.50
22006;DHT22;11167;46.988;15.470;2022-10-14T05:52:03;13.70;81.50
22006;DHT22;11167;46.988;15.470;2022-10-14T05:54:04;13.60;81.00
22006;DHT22;11167;46.988;15.470;2022-10-14T05:56:08;13.60;81.50
22006;DHT22;11167;46.988;15.470;2022-10-14T05:58:09;13.60;81.60
22006;DHT22;11167;46.988;15.470;2022-10-14T06:00:11;13.60;81.60
22006;DHT22;11167;46.988;15.470;2022-10-14T06:02:14;13.60;81.60
22006;DHT22;11167;46.988;15.470;2022-10-14T06:04:17;13.60;81.70
22006;DHT22;11167;46.988;15.470;2022-10-14T06:06:18;13.60;81.70
22006;DHT22;11167;46.988;15.470;2022-10-14T06:08:20;13.60;81.60
22006;DHT22;11167;46.988;15.470;2022-10-14T06:10:21;13.60;81.70
22006;DHT22;11167;46.988;15.470;2022-10-14T06:12:22;13.60;82.20
22006;DHT22;11167;46.988;15.470;2022-10-14T06:14:23;13.60;81.60
22006;DHT22;11167;46.988;15.470;2022-10-14T06:16:24;13.60;81.70
22006;DHT22;11167;46.988;15.470;2022-10-14T06:18:26;13.60;81.70
22006;DHT22;11167;46.988;15.470;2022-10-14T06:20:27;13.60;81.80
22006;DHT22;11167;46.988;15.470;2022-10-14T06:22:29;13.60;81.80
22006;DHT22;11167;46.988;15.470;2022-10-14T06:24:30;13.60;81.80
22006;DHT22;11167;46.988;15.470;2022-10-14T06:26:31;13.60;81.80
22006;DHT22;11167;46.988;15.470;2022-10-14T06:28:33;13.60;81.80
22006;DHT22;11167;46.988;15.470;2022-10-14T06:30:34;13.60;81.80
22006;DHT22;11167;46.988;15.470;2022-10-14T06:32:35;13.60;82.60
22006;DHT22;11167;46.988;15.470;2022-10-14T06:34:36;13.60;81.90
22006;DHT22;11167;46.988;15.470;2022-10-14T06:36:38;13.50;81.80
22006;DHT22;11167;46.988;15.470;2022-10-14T06:38:39;13.60;81.80
22006;DHT22;11167;46.988;15.470;2022-10-14T06:40:40;13.50;81.90
22006;DHT22;11167;46.988;15.470;2022-10-14T06:42:41;13.50;81.90
22006;DHT22;11167;46.988;15.470;2022-10-14T06:44:42;13.50;81.90
22006;DHT22;11167;46.988;15.470;2022-10-14T06:46:43;13.50;82.00
22006;DHT22;11167;46.988;15.470;2022-10-14T06:48:45;13.50;82.00
22006;DHT22;11167;46.988;15.470;2022-10-14T06:50:46;13.50;81.90
22006;DHT22;11167;46.988;15.470;2022-10-14T06:52:47;13.50;81.90
22006;DHT22;11167;46.988;15.470;2022-10-14T06:54:48;13.50;81.90
22006;DHT22;11167;46.988;15.470;2022-10-14T06:56:50;13.50;81.90
22006;DHT22;11167;46.988;15.470;2022-10-14T06:58:54;13.50;82.80
22006;DHT22;11167;46.988;15.470;2022-10-14T07:01:01;13.50;82.00
22006;DHT22;11167;46.988;15.470;2022-10-14T07:03:02;13.50;82.00
22006;DHT22;11167;46.988;15.470;2022-10-14T07:05:04;13.50;82.00
22006;DHT22;11167;46.988;15.470;2022-10-14T07:07:06;13.50;82.00
22006;DHT22;11167;46.988;15.470;2022-10-14T07:09:07;13.50;82.00
22006;DHT22;11167;46.988;15.470;2022-10-14T07:11:08;13.40;82.00
22006;DHT22;11167;46.988;15.470;2022-10-14T07:13:09;13.50;82.70
22006;DHT22;11167;46.988;15.470;2022-10-14T07:15:10;13.40;82.00
22006;DHT22;11167;46.988;15.470;2022-10-14T07:17:12;13.50;82.20
22006;DHT22;11167;46.988;15.470;2022-10-14T07:19:13;13.50;82.10
22006;DHT22;11167;46.988;15.470;2022-10-14T07:21:14;13.50;82.00
22006;DHT22;11167;46.988;15.470;2022-10-14T07:23:15;13.50;82.00
22006;DHT22;11167;46.988;15.470;2022-10-14T07:25:17;13.50;82.10
22006;DHT22;11167;46.988;15.470;2022-10-14T07:27:18;13.50;82.10
22006;DHT22;11167;46.988;15.470;2022-10-14T07:29:20;13.40;82.00
22006;DHT22;11167;46.988;15.470;2022-10-14T07:31:21;13.50;82.10
22006;DHT22;11167;46.988;15.470;2022-10-14T07:33:22;13.50;82.20
22006;DHT22;11167;46.988;15.470;2022-10-14T07:35:24;13.50;82.20
22006;DHT22;11167;46.988;15.470;2022-10-14T07:37:26;13.50;82.20
22006;DHT22;11167;46.988;15.470;2022-10-14T07:39:27;13.50;82.20
22006;DHT22;11167;46.988;15.470;2022-10-14T07:41:29;13.50;82.20
22006;DHT22;11167;46.988;15.470;2022-10-14T07:43:31;13.50;82.20
22006;DHT22;11167;46.988;15.470;2022-10-14T07:45:33;13.50;82.30
22006;DHT22;11167;46.988;15.470;2022-10-14T07:47:36;13.50;82.20
22006;DHT22;11167;46.988;15.470;2022-10-14T07:49:37;13.50;82.20
22006;DHT22;11167;46.988;15.470;2022-10-14T07:51:39;13.50;82.20
22006;DHT22;11167;46.988;15.470;2022-10-14T07:53:41;13.50;82.20
22006;DHT22;11167;46.988;15.470;2022-10-14T07:55:45;13.50;82.20
22006;DHT22;11167;46.988;15.470;2022-10-14T07:57:48;13.50;82.30
22006;DHT22;11167;46.988;15.470;2022-10-14T07:59:49;13.50;82.30
22006;DHT22;11167;46.988;15.470;2022-10-14T08:01:53;13.50;82.30
22006;DHT22;11167;46.988;15.470;2022-10-14T08:03:56;13.50;82.30
22006;DHT22;11167;46.988;15.470;2022-10-14T08:06:03;13.50;82.40
22006;DHT22;11167;46.988;15.470;2022-10-14T08:08:04;13.50;82.40
22006;DHT22;11167;46.988;15.470;2022-10-14T08:10:05;13.50;82.40
22006;DHT22;11167;46.988;15.470;2022-10-14T08:12:07;13.50;82.40
22006;DHT22;11167;46.988;15.470;2022-10-14T08:14:08;13.50;82.40
22006;DHT22;11167;46.988;15.470;2022-10-14T08:18:35;13.50;82.40
22006;DHT22;11167;46.988;15.470;2022-10-14T08:20:36;13.50;82.50
22006;DHT22;11167;46.988;15.470;2022-10-14T08:22:38;13.50;82.50
22006;DHT22;11167;46.988;15.470;2022-10-14T08:24:39;13.60;82.50
22006;DHT22;11167;46.988;15.470;2022-10-14T08:26:49;13.50;82.50
22006;DHT22;11167;46.988;15.470;2022-10-14T08:28:50;13.60;82.60
22006;DHT22;11167;46.988;15.470;2022-10-14T08:30:52;13.60;82.60
22006;DHT22;11167;46.988;15.470;2022-10-14T08:32:53;13.60;82.60
22006;DHT22;11167;46.988;15.470;2022-10-14T08:34:55;13.60;82.60
22006;DHT22;11167;46.988;15.470;2022-10-14T08:36:56;13.60;82.60
22006;DHT22;11167;46.988;15.470;2022-10-14T08:38:57;13.60;82.60
22006;DHT22;11167;46.988;15.470;2022-10-14T08:41:13;13.60;82.60
22006;DHT22;11167;46.988;15.470;2022-10-14T08:43:29;13.60;82.60
22006;DHT22;11167;46.988;15.470;2022-10-14T08:45:34;13.60;82.50
22006;DHT22;11167;46.988;15.470;2022-10-14T08:47:39;13.60;82.60
22006;DHT22;11167;46.988;15.470;2022-10-14T08:51:50;13.60;82.60
22006;DHT22;11167;46.988;15.470;2022-10-14T08:53:54;13.60;82.60
22006;DHT22;11167;46.988;15.470;2022-10-14T08:55:59;13.70;82.60
22006;DHT22;11167;46.988;15.470;2022-10-14T08:58:13;13.70;82.60
22006;DHT22;11167;46.988;15.470;2022-10-14T09:00:15;13.70;82.70
22006;DHT22;11167;46.988;15.470;2022-10-14T09:04:35;13.70;82.70
22006;DHT22;11167;46.988;15.470;2022-10-14T09:06:38;13.70;82.70
22006;DHT22;11167;46.988;15.470;2022-10-14T09:08:45;13.70;82.80
22006;DHT22;11167;46.988;15.470;2022-10-14T09:10:47;13.70;82.80
22006;DHT22;11167;46.988;15.470;2022-10-14T09:12:49;13.80;82.80
22006;DHT22;11167;46.988;15.470;2022-10-14T09:15:16;13.80;83.70
22006;DHT22;11167;46.988;15.470;2022-10-14T09:17:28;13.80;82.90
22006;DHT22;11167;46.988;15.470;2022-10-14T09:19:36;13.80;82.90
22006;DHT22;11167;46.988;15.470;2022-10-14T09:21:40;13.80;83.00
22006;DHT22;11167;46.988;15.470;2022-10-14T09:23:41;13.80;83.00
22006;DHT22;11167;46.988;15.470;2022-10-14T09:25:50;13.80;83.90
22006;DHT22;11167;46.988;15.470;2022-10-14T09:27:47;13.80;83.20
22006;DHT22;11167;46.988;15.470;2022-10-14T09:29:59;13.80;83.20
22006;DHT22;11167;46.988;15.470;2022-10-14T09:32:02;13.90;83.30
22006;DHT22;11167;46.988;15.470;2022-10-14T09:34:01;13.90;83.30
22006;DHT22;11167;46.988;15.470;2022-10-14T09:36:04;13.90;83.30
22006;DHT22;11167;46.988;15.470;2022-10-14T09:38:05;14.00;83.40
22006;DHT22;11167;46.988;15.470;2022-10-14T09:47:11;14.10;83.70
22006;DHT22;11167;46.988;15.470;2022-10-14T09:49:32;14.10;83.80
22006;DHT22;11167;46.988;15.470;2022-10-14T09:51:30;14.20;83.90
22006;DHT22;11167;46.988;15.470;2022-10-14T09:53:47;14.20;83.90
22006;DHT22;11167;46.988;15.470;2022-10-14T09:56:01;14.20;84.10
22006;DHT22;11167;46.988;15.470;2022-10-14T09:58:06;14.20;84.10
22006;DHT22;11167;46.988;15.470;2022-10-14T10:00:22;14.30;84.20
22006;DHT22;11167;46.988;15.470;2022-10-14T10:02:21;14.30;84.20
22006;DHT22;11167;46.988;15.470;2022-10-14T10:04:40;14.40;84.40
22006;DHT22;11167;46.988;15.470;2022-10-14T10:06:49;14.40;84.40
22006;DHT22;11167;46.988;15.470;2022-10-14T10:08:57;14.40;84.50
22006;DHT22;11167;46.988;15.470;2022-10-14T10:13:21;14.50;84.60
22006;DHT22;11167;46.988;15.470;2022-10-14T10:15:23;14.60;84.70
22006;DHT22;11167;46.988;15.470;2022-10-14T10:17:24;14.60;84.80
22006;DHT22;11167;46.988;15.470;2022-10-14T10:19:39;14.60;84.80
22006;DHT22;11167;46.988;15.470;2022-10-14T10:21:38;14.70;84.90
22006;DHT22;11167;46.988;15.470;2022-10-14T10:23:55;14.80;85.00
22006;DHT22;11167;46.988;15.470;2022-10-14T10:25:53;14.80;85.00
22006;DHT22;11167;46.988;15.470;2022-10-14T10:27:58;14.80;85.10
22006;DHT22;11167;46.988;15.470;2022-10-14T10:30:23;14.90;85.10
22006;DHT22;11167;46.988;15.470;2022-10-14T10:32:08;14.90;85.20
22006;DHT22;11167;46.988;15.470;2022-10-14T10:36:40;15.00;85.30
22006;DHT22;11167;46.988;15.470;2022-10-14T10:38:56;15.10;85.40
22006;DHT22;11167;46.988;15.470;2022-10-14T10:41:16;15.20;85.60
22006;DHT22;11167;46.988;15.470;2022-10-14T10:52:05;15.40;85.80
22006;DHT22;11167;46.988;15.470;2022-10-14T10:56:47;15.50;86.00
22006;DHT22;11167;46.988;15.470;2022-10-14T11:12:45;16.00;86.40
22006;DHT22;11167;46.988;15.470;2022-10-14T11:14:52;16.10;86.60
22006;DHT22;11167;46.988;15.470;2022-10-14T11:17:10;16.10;86.50
22006;DHT22;11167;46.988;15.470;2022-10-14T11:19:14;16.20;86.60
22006;DHT22;11167;46.988;15.470;2022-10-14T11:28:52;16.40;86.70
22006;DHT22;11167;46.988;15.470;2022-10-14T11:31:00;16.50;86.80
22006;DHT22;11167;46.988;15.470;2022-10-14T11:33:15;16.60;86.80
22006;DHT22;11167;46.988;15.470;2022-10-14T11:37:45;16.70;86.90
22006;DHT22;11167;46.988;15.470;2022-10-14T11:44:31;16.90;86.90
22006;DHT22;11167;46.988;15.470;2022-10-14T11:46:34;16.90;86.90
22006;DHT22;11167;46.988;15.470;2022-10-14T11:50:49;17.00;87.00
22006;DHT22;11167;46.988;15.470;2022-10-14T11:55:15;17.10;87.10
22006;DHT22;11167;46.988;15.470;2022-10-14T11:59:46;17.30;87.20
22006;DHT22;11167;46.988;15.470;2022-10-14T12:01:50;17.30;87.20
22006;DHT22;11167;46.988;15.470;2022-10-14T12:04:03;17.40;87.20
22006;DHT22;11167;46.988;15.470;2022-10-14T12:08:45;17.50;87.30
22006;DHT22;11167;46.988;15.470;2022-10-14T12:10:43;17.60;87.40
22006;DHT22;11167;46.988;15.470;2022-10-14T12:12:44;17.60;87.40
22006;DHT22;11167;46.988;15.470;2022-10-14T12:14:50;17.70;87.50
22006;DHT22;11167;46.988;15.470;2022-10-14T12:16:56;17.70;87.40
22006;DHT22;11167;46.988;15.470;2022-10-14T12:18:58;17.80;87.60
22006;DHT22;11167;46.988;15.470;2022-10-14T12:24:18;17.90;87.70
22006;DHT22;11167;46.988;15.470;2022-10-14T12:25:32;18.00;87.70
22006;DHT22;11167;46.988;15.470;2022-10-14T12:27:33;18.10;87.80
22006;DHT22;11167;46.988;15.470;2022-10-14T12:29:37;18.10;87.80
22006;DHT22;11167;46.988;15.470;2022-10-14T12:31:39;18.20;87.80
22006;DHT22;11167;46.988;15.470;2022-10-14T12:36:30;18.30;87.90
22006;DHT22;11167;46.988;15.470;2022-10-14T12:38:31;18.40;88.10
22006;DHT22;11167;46.988;15.470;2022-10-14T12:40:35;18.50;88.00
22006;DHT22;11167;46.988;15.470;2022-10-14T12:44:46;18.50;88.10
22006;DHT22;11167;46.988;15.470;2022-10-14T12:46:50;18.60;88.10
22006;DHT22;11167;46.988;15.470;2022-10-14T12:48:52;18.70;88.20
22006;DHT22;11167;46.988;15.470;2022-10-14T12:51:07;18.80;88.30
22006;DHT22;11167;46.988;15.470;2022-10-14T12:53:26;18.80;88.20
22006;DHT22;11167;46.988;15.470;2022-10-14T12:55:26;18.90;88.30
22006;DHT22;11167;46.988;15.470;2022-10-14T12:57:31;19.00;88.30
22006;DHT22;11167;46.988;15.470;2022-10-14T12:59:35;19.00;88.30
22006;DHT22;11167;46.988;15.470;2022-10-14T13:01:41;19.10;89.20
22006;DHT22;11167;46.988;15.470;2022-10-14T13:06:28;19.20;88.50
22006;DHT22;11167;46.988;15.470;2022-10-14T13:08:30;19.30;88.50
22006;DHT22;11167;46.988;15.470;2022-10-14T13:12:43;19.40;88.60
22006;DHT22;11167;46.988;15.470;2022-10-14T13:15:28;19.40;88.50
22006;DHT22;11167;46.988;15.470;2022-10-14T13:17:45;19.50;88.60
22006;DHT22;11167;46.988;15.470;2022-10-14T13:19:46;19.60;88.60
22006;DHT22;11167;46.988;15.470;2022-10-14T13:21:50;19.60;88.60
22006;DHT22;11167;46.988;15.470;2022-10-14T13:23:53;19.70;88.70
22006;DHT22;11167;46.988;15.470;2022-10-14T13:32:53;19.80;88.70
22006;DHT22;11167;46.988;15.470;2022-10-14T13:35:16;19.90;88.70
22006;DHT22;11167;46.988;15.470;2022-10-14T13:37:34;20.00;88.80
22006;DHT22;11167;46.988;15.470;2022-10-14T13:39:36;20.00;88.70
22006;DHT22;11167;46.988;15.470;2022-10-14T13:41:37;20.00;88.70
22006;DHT22;11167;46.988;15.470;2022-10-14T13:43:41;20.00;88.70
22006;DHT22;11167;46.988;15.470;2022-10-14T13:45:55;20.10;88.70
22006;DHT22;11167;46.988;15.470;2022-10-14T13:47:53;20.20;88.80
22006;DHT22;11167;46.988;15.470;2022-10-14T13:49:56;20.20;88.80
22006;DHT22;11167;46.988;15.470;2022-10-14T13:52:00;20.30;88.80
22006;DHT22;11167;46.988;15.470;2022-10-14T13:54:25;20.30;88.80
22006;DHT22;11167;46.988;15.470;2022-10-14T13:56:29;20.40;88.90
22006;DHT22;11167;46.988;15.470;2022-10-14T14:01:12;20.50;89.00
22006;DHT22;11167;46.988;15.470;2022-10-14T14:03:25;20.50;88.80
22006;DHT22;11167;46.988;15.470;2022-10-14T14:05:31;20.50;89.00
22006;DHT22;11167;46.988;15.470;2022-10-14T14:07:35;20.60;89.00
22006;DHT22;11167;46.988;15.470;2022-10-14T14:09:37;20.60;89.00
22006;DHT22;11167;46.988;15.470;2022-10-14T14:11:41;20.70;89.10
22006;DHT22;11167;46.988;15.470;2022-10-14T14:13:58;20.80;89.10
22006;DHT22;11167;46.988;15.470;2022-10-14T14:16:00;20.80;89.10
22006;DHT22;11167;46.988;15.470;2022-10-14T14:18:01;20.80;89.00
22006;DHT22;11167;46.988;15.470;2022-10-14T14:20:08;20.90;89.10
22006;DHT22;11167;46.988;15.470;2022-10-14T14:22:19;20.90;89.10
22006;DHT22;11167;46.988;15.470;2022-10-14T14:24:23;21.00;89.30
22006;DHT22;11167;46.988;15.470;2022-10-14T14:26:36;21.00;89.10
22006;DHT22;11167;46.988;15.470;2022-10-14T14:28:38;21.10;89.20
22006;DHT22;11167;46.988;15.470;2022-10-14T14:30:39;21.10;89.10
22006;DHT22;11167;46.988;15.470;2022-10-14T14:32:40;21.10;89.10
22006;DHT22;11167;46.988;15.470;2022-10-14T14:34:43;21.20;89.20
22006;DHT22;11167;46.988;15.470;2022-10-14T14:36:46;21.20;89.20
22006;DHT22;11167;46.988;15.470;2022-10-14T14:38:56;21.30;89.20
22006;DHT22;11167;46.988;15.470;2022-10-14T14:41:03;21.30;89.20